Time;durP1;ratioP1;P1;durP2;ratioP2;P2;SDS_P1;SDS_P2;PMS_P1;PMS_P2;Temp;Humidity;BMP_temperature;BMP_pressure;BME280_temperature;BME280_humidity;BME280_pressure;Samples;Min_cycle;Max_cycle;Signal;HPM_P1;HPM_P2
2023/08/12 00:00:43;;;;;;;1.75;0.90;;;;;;;21.89;85.72;100564.97;5070752;28;20203;-70
2023/08/12 00:03:10;;;;;;;0.60;0.60;;;;;;;21.88;86.09;100564.97;5070366;28;20187;-70
2023/08/12 00:05:36;;;;;;;2.72;0.98;;;;;;;21.81;86.10;100572.19;5070413;28;20194;-70
2023/08/12 00:08:04;;;;;;;0.70;0.70;;;;;;;21.72;87.33;100567.97;5071046;28;20199;-70
2023/08/12 00:10:30;;;;;;;0.80;0.80;;;;;;;21.70;87.47;100574.19;5071351;28;20199;-71
2023/08/12 00:12:57;;;;;;;0.70;0.70;;;;;;;21.66;87.67;100567.25;5070869;28;20600;-70
2023/08/12 00:15:24;;;;;;;1.15;0.90;;;;;;;21.61;87.91;100561.22;5070980;28;20202;-71
2023/08/12 00:17:53;;;;;;;0.80;0.80;;;;;;;21.66;88.12;100569.88;5072467;28;20202;-71
2023/08/12 00:20:20;;;;;;;2.40;1.00;;;;;;;21.54;89.06;100573.69;5074954;28;20282;-71
2023/08/12 00:22:47;;;;;;;0.70;0.70;;;;;;;21.41;89.70;100560.75;5074910;28;20206;-71
2023/08/12 00:25:14;;;;;;;3.30;1.00;;;;;;;21.40;90.48;100559.91;5074983;28;20206;-71
2023/08/12 00:27:40;;;;;;;0.80;0.80;;;;;;;21.41;90.49;100560.75;5074660;28;20210;-71
2023/08/12 00:30:08;;;;;;;2.28;0.88;;;;;;;21.31;90.95;100559.22;5074783;28;20221;-71
2023/08/12 00:32:35;;;;;;;0.70;0.70;;;;;;;21.19;91.01;100549.78;5074872;28;20195;-71
2023/08/12 00:35:04;;;;;;;1.95;0.95;;;;;;;21.32;91.45;100556.56;5075045;28;20199;-71
2023/08/12 00:37:30;;;;;;;0.70;0.70;;;;;;;21.19;91.99;100555.94;5074718;28;20199;-71
2023/08/12 00:39:57;;;;;;;2.25;1.00;;;;;;;20.99;92.03;100518.53;5074748;28;20307;-73
2023/08/12 00:42:24;;;;;;;2.17;1.00;;;;;;;21.08;92.19;100544.72;5074232;28;20662;-71
2023/08/12 00:44:51;;;;;;;2.42;1.05;;;;;;;21.18;92.57;100562.13;5074114;28;20191;-71
2023/08/12 00:47:18;;;;;;;0.80;0.80;;;;;;;21.14;92.97;100571.00;5074453;28;20654;-71
2023/08/12 00:49:45;;;;;;;1.95;0.82;;;;;;;20.93;93.72;100558.22;5074299;28;20575;-71
2023/08/12 00:52:14;;;;;;;1.30;1.10;;;;;;;21.01;94.21;100577.38;5074548;28;20264;-71
2023/08/12 00:54:41;;;;;;;1.33;0.75;;;;;;;21.06;94.17;100574.66;5074089;28;20281;-71
2023/08/12 00:57:08;;;;;;;0.90;0.90;;;;;;;20.89;95.23;100572.34;5074357;28;20199;-71
2023/08/12 00:59:36;;;;;;;2.58;0.98;;;;;;;20.84;96.21;100563.66;5073856;28;20688;-70
2023/08/12 01:02:04;;;;;;;0.70;0.70;;;;;;;20.92;96.42;100566.16;5074242;28;20226;-71
2023/08/12 01:04:31;;;;;;;2.53;0.95;;;;;;;20.82;96.54;100570.75;5074036;28;20226;-71
2023/08/12 01:06:58;;;;;;;0.80;0.80;;;;;;;20.83;96.72;100574.25;5073808;28;20202;-71
2023/08/12 01:09:26;;;;;;;1.20;0.73;;;;;;;20.84;96.80;100563.66;5073945;28;20665;-71
2023/08/12 01:12:01;;;;;;;0.70;0.70;;;;;;;20.66;97.34;100537.66;5074011;28;20661;-71
2023/08/12 01:14:34;;;;;;;2.25;0.90;;;;;;;20.74;98.35;100562.09;5073845;28;20199;-71
2023/08/12 01:17:04;;;;;;;0.70;0.70;;;;;;;20.80;98.19;100564.59;5074122;28;20208;-71
2023/08/12 01:19:35;;;;;;;1.27;0.90;;;;;;;20.67;98.99;100563.09;5073831;28;20277;-71
2023/08/12 01:22:03;;;;;;;0.70;0.70;;;;;;;20.51;98.77;100533.53;5038705;28;20199;-71
2023/08/12 01:24:36;;;;;;;2.83;1.00;;;;;;;20.68;99.11;100572.75;5073824;28;20207;-71
2023/08/12 01:27:03;;;;;;;1.33;0.93;;;;;;;20.49;100.00;100571.34;5038387;28;20705;-71
2023/08/12 01:29:30;;;;;;;1.10;0.80;;;;;;;20.47;100.00;100570.50;5037818;28;20203;-72
2023/08/12 01:32:03;;;;;;;0.80;0.80;;;;;;;20.39;100.00;100549.56;5073901;28;20198;-71
2023/08/12 01:34:42;;;;;;;3.28;1.13;;;;;;;20.49;100.00;100571.34;5073615;28;20191;-71
2023/08/12 01:37:11;;;;;;;0.80;0.80;;;;;;;20.43;100.00;100574.09;5073760;28;20202;-71
2023/08/12 01:39:43;;;;;;;1.30;0.82;;;;;;;20.47;100.00;100583.69;5073494;28;20242;-71
2023/08/12 01:42:11;;;;;;;3.25;1.27;;;;;;;20.39;100.00;100586.44;5073547;28;20248;-71
2023/08/12 01:44:38;;;;;;;0.70;0.70;;;;;;;20.35;100.00;100578.63;5073759;28;20211;-71
2023/08/12 01:47:05;;;;;;;1.60;1.00;;;;;;;20.27;100.00;100582.25;5037341;28;20202;-72
2023/08/12 01:49:32;;;;;;;0.77;0.77;;;;;;;20.31;100.00;100587.47;5073378;28;20206;-70
2023/08/12 01:51:58;;;;;;;1.75;0.90;;;;;;;20.19;100.00;100583.25;5073653;28;20198;-70
2023/08/12 01:54:25;;;;;;;0.70;0.70;;;;;;;20.31;100.00;100587.47;5072761;28;20211;-70
2023/08/12 01:56:53;;;;;;;1.75;0.90;;;;;;;20.35;100.00;100597.94;5073197;28;20203;-70
2023/08/12 01:59:20;;;;;;;0.70;0.70;;;;;;;20.13;100.00;100576.31;5072698;28;20226;-70
2023/08/12 02:01:47;;;;;;;1.00;0.90;;;;;;;20.30;100.00;100606.81;5073131;28;20205;-70
2023/08/12 02:04:13;;;;;;;1.38;0.90;;;;;;;20.33;100.00;100610.25;5073196;28;20206;-69
2023/08/12 02:06:40;;;;;;;1.33;1.17;;;;;;;20.37;100.00;100611.09;5073112;28;20198;-70
2023/08/12 02:09:07;;;;;;;0.80;0.75;;;;;;;20.25;100.00;100604.22;5072777;28;20199;-70
2023/08/12 02:11:34;;;;;;;1.50;0.77;;;;;;;20.22;100.00;100602.50;5073103;28;20203;-70
2023/08/12 02:14:02;;;;;;;1.00;0.80;;;;;;;20.35;100.00;100620.75;5072667;28;20206;-70
2023/08/12 02:16:29;;;;;;;2.35;0.80;;;;;;;20.25;100.00;100623.53;5037357;28;20195;-70
2023/08/12 02:18:55;;;;;;;1.30;0.90;;;;;;;20.13;100.00;100610.53;5072481;28;20190;-70
2023/08/12 02:21:22;;;;;;;0.68;0.55;;;;;;;20.21;100.00;100629.72;5054015;28;20199;-70
2023/08/12 02:23:49;;;;;;;1.67;0.90;;;;;;;20.20;100.00;100622.72;5037487;28;20206;-70
2023/08/12 02:26:16;;;;;;;0.90;0.90;;;;;;;20.23;100.00;100617.38;5071270;28;20218;-70
2023/08/12 02:28:43;;;;;;;1.60;0.85;;;;;;;19.96;100.00;100607.28;5072288;28;20669;-70
2023/08/12 02:31:11;;;;;;;0.80;0.80;;;;;;;20.04;100.00;100621.22;5072497;28;20204;-70
2023/08/12 02:33:38;;;;;;;1.65;0.82;;;;;;;19.96;100.00;100607.28;5037159;28;20194;-70
2023/08/12 02:36:05;;;;;;;0.70;0.70;;;;;;;19.76;100.00;100619.88;5072373;28;20206;-70
2023/08/12 02:38:32;;;;;;;0.90;0.80;;;;;;;19.77;100.00;100618.97;5072056;28;20253;-70
2023/08/12 02:40:59;;;;;;;0.70;0.70;;;;;;;19.76;100.00;100609.34;5071259;28;20250;-71
2023/08/12 02:43:25;;;;;;;2.00;0.95;;;;;;;19.82;100.00;100617.16;5072349;28;20202;-70
2023/08/12 02:45:52;;;;;;;0.70;0.70;;;;;;;19.84;100.00;100625.88;5071197;28;20604;-70
2023/08/12 02:48:20;;;;;;;3.17;1.13;;;;;;;19.66;100.00;100626.13;5071672;28;20210;-71
2023/08/12 02:50:47;;;;;;;0.60;0.60;;;;;;;19.61;100.00;100630.59;5072275;28;20666;-70
2023/08/12 02:53:14;;;;;;;2.85;0.90;;;;;;;19.65;100.00;100632.31;5065623;28;20241;-70
2023/08/12 02:55:41;;;;;;;0.75;0.75;;;;;;;19.50;100.00;100595.66;5052129;28;20204;-70
2023/08/12 02:58:08;;;;;;;1.60;0.90;;;;;;;19.63;100.00;100634.94;5052268;28;20207;-70
2023/08/12 03:00:34;;;;;;;0.60;0.60;;;;;;;19.32;100.00;100599.38;5071789;28;20226;-71
2023/08/12 03:03:01;;;;;;;1.52;0.85;;;;;;;19.51;100.00;100635.09;5071722;28;20199;-70
2023/08/12 03:05:29;;;;;;;0.80;0.80;;;;;;;19.58;100.00;100623.63;5072059;28;20190;-70
2023/08/12 03:07:57;;;;;;;1.48;0.85;;;;;;;19.53;100.00;100628.06;5072028;28;20199;-70
2023/08/12 03:10:24;;;;;;;1.98;0.82;;;;;;;19.54;100.00;100628.94;5071391;28;20210;-70
2023/08/12 03:12:51;;;;;;;1.65;0.80;;;;;;;19.35;100.00;100604.59;5071706;28;20195;-70
2023/08/12 03:15:18;;;;;;;1.75;0.80;;;;;;;19.54;100.00;100634.19;5070795;28;20198;-70
2023/08/12 03:17:44;;;;;;;0.80;0.80;;;;;;;19.47;100.00;100627.28;5071786;28;20198;-71
2023/08/12 03:20:12;;;;;;;1.70;1.00;;;;;;;19.46;100.00;100621.13;5071227;28;20222;-70
2023/08/12 03:22:40;;;;;;;0.80;0.80;;;;;;;19.59;100.00;100638.50;5053101;28;20195;-70
2023/08/12 03:25:07;;;;;;;1.75;0.90;;;;;;;19.57;100.00;100628.91;5071573;28;20203;-71
2023/08/12 03:27:34;;;;;;;0.80;0.80;;;;;;;19.63;100.00;100637.56;5071853;28;20203;-70
2023/08/12 03:30:01;;;;;;;0.98;0.80;;;;;;;19.52;100.00;100626.31;5071241;28;20272;-70
2023/08/12 03:32:28;;;;;;;0.93;0.90;;;;;;;19.46;100.00;100601.84;5082189;28;20206;-70
2023/08/12 03:34:55;;;;;;;1.67;1.00;;;;;;;19.52;100.00;100633.31;5051474;28;20195;-70
2023/08/12 03:37:21;;;;;;;0.80;0.80;;;;;;;19.57;100.00;100635.03;5082627;28;20203;-70
2023/08/12 03:39:49;;;;;;;1.20;0.80;;;;;;;19.68;100.00;100642.78;5096624;28;20234;-70
2023/08/12 03:42:16;;;;;;;0.80;0.80;;;;;;;19.74;100.00;100642.69;5084205;28;20203;-71
2023/08/12 03:44:44;;;;;;;0.80;0.73;;;;;;;19.70;100.00;100636.59;5075244;28;20230;-71
2023/08/12 03:47:10;;;;;;;0.70;0.70;;;;;;;19.81;100.00;100644.34;5071852;28;20194;-71
2023/08/12 03:49:37;;;;;;;1.05;0.90;;;;;;;20.04;100.00;100647.53;5071800;28;20665;-72
2023/08/12 03:52:06;;;;;;;1.33;0.88;;;;;;;20.51;100.00;100653.88;5071141;28;20221;-71
2023/08/12 03:54:33;;;;;;;0.80;0.80;;;;;;;21.17;100.00;100657.09;5071483;28;20653;-71
2023/08/12 03:57:02;;;;;;;0.85;0.80;;;;;;;21.59;100.00;100611.38;5071619;28;20206;-71
2023/08/12 03:59:28;;;;;;;0.60;0.60;;;;;;;22.40;93.13;100665.03;5071634;28;20221;-72
2023/08/12 04:01:55;;;;;;;1.65;0.90;;;;;;;23.07;89.02;100670.41;5071263;28;20206;-72
2023/08/12 04:04:22;;;;;;;0.68;0.63;;;;;;;23.61;83.95;100673.31;5070761;28;20205;-71
2023/08/12 04:06:51;;;;;;;2.20;1.02;;;;;;;24.17;79.82;100671.63;5071152;28;20194;-72
2023/08/12 04:09:18;;;;;;;0.60;0.60;;;;;;;24.64;76.41;100683.38;5071667;28;20191;-73
2023/08/12 04:11:45;;;;;;;0.60;0.60;;;;;;;24.96;71.47;100684.97;5071419;28;20202;-72
2023/08/12 04:14:13;;;;;;;0.75;0.70;;;;;;;25.21;69.06;100690.28;5070934;28;20195;-72
2023/08/12 04:16:40;;;;;;;1.23;0.90;;;;;;;25.39;67.55;100680.81;5071069;28;20666;-72
2023/08/12 04:19:07;;;;;;;0.50;0.50;;;;;;;25.80;65.14;100664.22;5035829;28;20253;-72
2023/08/12 04:21:33;;;;;;;0.70;0.70;;;;;;;25.97;64.18;100664.41;5068298;28;20665;-72
2023/08/12 04:24:00;;;;;;;0.70;0.70;;;;;;;26.38;63.07;100692.06;5070016;28;20600;-71
2023/08/12 04:26:27;;;;;;;0.70;0.70;;;;;;;26.65;61.76;100687.41;5070388;28;20195;-71
2023/08/12 04:28:54;;;;;;;2.05;0.88;;;;;;;26.76;60.70;100679.84;5070871;28;20210;-71
2023/08/12 04:31:22;;;;;;;0.68;0.68;;;;;;;26.98;58.79;100699.34;5070574;28;20211;-72
2023/08/12 04:33:49;;;;;;;1.60;0.80;;;;;;;26.85;59.03;100700.81;5035197;28;20191;-72
2023/08/12 04:36:16;;;;;;;0.55;0.55;;;;;;;26.84;59.70;100701.72;5076147;28;20206;-73
2023/08/12 04:38:43;;;;;;;1.90;0.80;;;;;;;26.66;60.60;100683.84;5053007;28;20194;-70
2023/08/12 04:41:10;;;;;;;0.52;0.52;;;;;;;26.53;62.46;100682.63;5084864;28;20252;-76
2023/08/12 04:43:37;;;;;;;0.70;0.70;;;;;;;26.79;63.92;100703.66;5089787;28;20201;-71
2023/08/12 04:46:03;;;;;;;0.88;0.88;;;;;;;26.93;62.57;100697.81;5088892;28;20202;-71
2023/08/12 04:48:33;;;;;;;1.10;0.85;;;;;;;27.40;61.76;100715.25;5084939;28;20696;-72
2023/08/12 04:51:01;;;;;;;1.13;1.08;;;;;;;27.60;58.25;100711.75;5076610;28;20191;-71
2023/08/12 04:53:28;;;;;;;1.13;0.68;;;;;;;28.05;56.39;100722.09;5087887;28;20198;-72
2023/08/12 04:55:56;;;;;;;1.20;0.68;;;;;;;28.40;55.06;100721.31;5078653;28;20195;-72
2023/08/12 04:58:23;;;;;;;0.65;0.65;;;;;;;29.07;54.48;100719.81;5070634;28;20194;-72
2023/08/12 05:00:50;;;;;;;0.50;0.50;;;;;;;29.19;52.12;100719.16;5069739;28;20215;-72
2023/08/12 05:03:17;;;;;;;0.50;0.50;;;;;;;29.14;51.07;100726.56;5070405;28;20198;-72
2023/08/12 05:05:50;;;;;;;0.82;0.63;;;;;;;29.43;51.07;100709.94;5072506;28;20202;-72
2023/08/12 05:08:17;;;;;;;0.50;0.50;;;;;;;29.91;50.66;100728.69;5073797;28;20201;-72
2023/08/12 05:10:43;;;;;;;1.23;0.82;;;;;;;30.31;48.39;100724.69;5073385;28;20205;-72
2023/08/12 05:13:10;;;;;;;0.50;0.50;;;;;;;30.50;48.33;100720.03;5074022;28;20660;-72
2023/08/12 05:15:37;;;;;;;1.27;0.65;;;;;;;30.37;46.84;100726.16;5074180;28;20228;-72
2023/08/12 05:18:05;;;;;;;0.40;0.40;;;;;;;29.99;48.00;100699.72;5073604;28;20259;-73
2023/08/12 05:20:34;;;;;;;0.50;0.50;;;;;;;30.21;48.29;100728.84;5073792;28;20617;-72
2023/08/12 05:23:03;;;;;;;0.60;0.60;;;;;;;28.98;51.47;100729.16;5074040;28;20207;-71
2023/08/12 05:25:29;;;;;;;6.47;1.15;;;;;;;28.78;52.24;100719.47;5073862;28;20202;-72
2023/08/12 05:27:56;;;;;;;0.50;0.50;;;;;;;28.27;53.25;100725.50;5073753;28;20198;-71
2023/08/12 05:30:23;;;;;;;2.92;0.80;;;;;;;27.98;55.03;100729.50;5073406;28;20194;-76
2023/08/12 05:32:50;;;;;;;1.00;0.98;;;;;;;28.06;55.35;100734.50;5035097;28;20202;-72
2023/08/12 05:35:17;;;;;;;0.60;0.60;;;;;;;28.04;56.16;100731.88;5073124;28;20202;-71
2023/08/12 05:37:43;;;;;;;1.70;0.75;;;;;;;27.75;57.49;100715.53;5073517;28;20195;-71
2023/08/12 05:40:12;;;;;;;0.90;0.88;;;;;;;27.58;58.54;100726.91;5073291;28;20734;-74
2023/08/12 05:42:39;;;;;;;2.38;0.77;;;;;;;27.10;59.92;100727.25;5073604;28;20197;-72
2023/08/12 05:45:07;;;;;;;4.45;1.05;;;;;;;26.50;62.20;100706.69;5073125;28;20816;-72
2023/08/12 05:47:34;;;;;;;1.73;0.75;;;;;;;25.80;68.98;100722.66;5073374;28;20615;-70
2023/08/12 05:50:00;;;;;;;7.45;1.17;;;;;;;25.57;68.23;100727.97;5070450;28;20688;-71
2023/08/12 05:52:28;;;;;;;2.65;1.13;;;;;;;25.42;70.53;100720.50;5072663;28;20214;-72
2023/08/12 05:54:55;;;;;;;0.80;0.80;;;;;;;25.15;73.44;100723.22;5071208;28;20649;-71
2023/08/12 05:57:23;;;;;;;3.00;0.90;;;;;;;25.36;72.63;100731.38;5066055;28;20226;-72
2023/08/12 05:59:50;;;;;;;1.35;0.80;;;;;;;25.08;72.99;100719.03;5037526;28;20256;-71
2023/08/12 06:02:17;;;;;;;3.75;0.85;;;;;;;24.69;75.02;100696.47;5069989;28;20223;-72
2023/08/12 06:04:43;;;;;;;0.73;0.65;;;;;;;24.66;77.37;100710.69;5066937;28;20200;-73
2023/08/12 06:07:10;;;;;;;0.55;0.55;;;;;;;24.53;76.65;100725.28;5061726;28;20277;-72
2023/08/12 06:09:37;;;;;;;1.65;0.98;;;;;;;24.31;76.75;100691.53;5068367;28;20256;-72
2023/08/12 06:12:04;;;;;;;5.55;1.35;;;;;;;24.30;79.28;100714.53;5056310;28;20548;-71
2023/08/12 06:14:32;;;;;;;3.60;1.00;;;;;;;24.49;79.37;100726.28;5063605;28;20203;-73
2023/08/12 06:16:59;;;;;;;0.85;0.75;;;;;;;24.30;79.64;100711.00;5070023;28;20206;-73
2023/08/12 06:19:26;;;;;;;1.65;0.70;;;;;;;24.02;82.81;100701.22;5070533;28;20199;-71
2023/08/12 06:21:53;;;;;;;2.15;0.80;;;;;;;24.12;87.14;100713.28;5060649;28;20230;-72
2023/08/12 06:24:19;;;;;;;1.45;0.73;;;;;;;24.00;86.07;100711.00;5066501;28;20210;-71
2023/08/12 06:26:46;;;;;;;1.58;0.80;;;;;;;24.02;84.77;100695.06;5053760;28;20204;-70
2023/08/12 06:29:13;;;;;;;1.85;0.98;;;;;;;24.00;85.26;100687.16;5052752;28;20218;-71
2023/08/12 06:31:41;;;;;;;1.95;0.80;;;;;;;24.23;85.20;100701.50;5058013;28;20204;-71
2023/08/12 06:34:08;;;;;;;0.68;0.60;;;;;;;24.37;84.74;100715.19;5052446;28;20658;-71
2023/08/12 06:36:53;;;;;;;0.88;0.82;;;;;;;24.24;84.05;100719.16;5088461;27;20594;-70
2023/08/12 06:39:20;;;;;;;0.80;0.80;;;;;;;24.19;85.82;100719.28;5060832;28;20207;-71
2023/08/12 06:41:47;;;;;;;2.88;1.10;;;;;;;24.23;84.70;100712.09;5045476;28;20210;-70
2023/08/12 06:44:14;;;;;;;3.97;1.17;;;;;;;24.14;84.09;100719.44;5071369;28;20202;-70
2023/08/12 06:46:40;;;;;;;1.45;0.90;;;;;;;24.15;84.38;100720.31;5056390;28;20233;-70
2023/08/12 06:49:08;;;;;;;1.35;1.35;;;;;;;24.08;84.12;100697.50;5047593;28;20225;-69
2023/08/12 06:51:35;;;;;;;1.00;0.80;;;;;;;24.10;84.82;100693.03;5067951;28;20727;-70
2023/08/12 06:54:03;;;;;;;0.70;0.70;;;;;;;24.43;85.42;100710.59;5064275;28;20643;-68
2023/08/12 06:56:29;;;;;;;1.10;0.98;;;;;;;24.64;88.46;100715.19;5069276;28;20622;-70
2023/08/12 06:58:56;;;;;;;0.70;0.70;;;;;;;24.49;82.54;100712.16;5067062;28;20635;-69
2023/08/12 07:01:23;;;;;;;2.40;1.27;;;;;;;24.41;81.78;100715.06;5067122;28;20645;-69
2023/08/12 07:03:50;;;;;;;0.60;0.60;;;;;;;24.36;84.19;100713.47;5088155;28;20590;-70
2023/08/12 07:06:16;;;;;;;4.80;1.42;;;;;;;24.42;83.82;100713.28;5070479;28;20230;-69
2023/08/12 07:08:43;;;;;;;0.70;0.70;;;;;;;24.08;86.04;100718.69;5067535;28;20199;-70
2023/08/12 07:11:11;;;;;;;1.13;1.00;;;;;;;24.31;86.09;100715.41;5067578;28;20210;-70
2023/08/12 07:13:38;;;;;;;0.77;0.75;;;;;;;24.43;86.68;100707.94;5067071;28;20206;-70
2023/08/12 07:16:05;;;;;;;0.70;0.70;;;;;;;24.35;83.32;100701.13;5066359;28;20199;-70
2023/08/12 07:18:32;;;;;;;1.27;0.88;;;;;;;24.26;84.16;100701.44;5060648;28;20662;-68
2023/08/12 07:20:59;;;;;;;0.60;0.60;;;;;;;24.51;84.19;100719.13;5067734;28;20280;-70
2023/08/12 07:23:26;;;;;;;0.70;0.70;;;;;;;24.69;82.56;100697.34;5067310;28;20294;-69
2023/08/12 07:25:53;;;;;;;0.60;0.60;;;;;;;24.88;82.87;100708.25;5066744;28;20226;-72
2023/08/12 07:28:21;;;;;;;1.33;1.30;;;;;;;24.94;84.39;100713.31;5074435;28;20225;-70
2023/08/12 07:30:49;;;;;;;0.60;0.60;;;;;;;25.19;80.91;100702.72;5066706;28;20207;-70
2023/08/12 07:33:15;;;;;;;1.95;0.93;;;;;;;25.35;83.14;100708.38;5066138;28;20199;-69
2023/08/12 07:35:42;;;;;;;0.60;0.60;;;;;;;25.17;77.00;100705.47;5063877;28;20230;-71
2023/08/12 07:38:09;;;;;;;1.50;1.25;;;;;;;25.07;76.31;100701.41;5067350;28;20202;-70
2023/08/12 07:40:36;;;;;;;1.02;0.90;;;;;;;24.93;77.22;100716.94;5066980;28;20268;-70
2023/08/12 07:43:03;;;;;;;0.60;0.60;;;;;;;24.87;80.45;100711.81;5067234;28;20211;-71
2023/08/12 07:45:31;;;;;;;1.02;1.02;;;;;;;25.14;79.60;100716.19;5066619;28;20214;-72
2023/08/12 07:47:58;;;;;;;0.60;0.60;;;;;;;25.13;78.04;100711.78;5054990;28;20203;-70
2023/08/12 07:50:25;;;;;;;0.60;0.60;;;;;;;25.28;77.68;100709.53;5051521;28;20204;-72
2023/08/12 07:52:52;;;;;;;0.85;0.85;;;;;;;25.48;78.35;100701.69;5018267;28;20211;-71
2023/08/12 07:55:19;;;;;;;1.65;0.90;;;;;;;25.29;76.84;100708.59;5053077;28;20286;-70
2023/08/12 07:57:46;;;;;;;0.70;0.70;;;;;;;25.53;79.04;100700.66;5051233;28;20210;-72
2023/08/12 08:00:13;;;;;;;2.20;1.00;;;;;;;25.71;79.69;100701.78;5018642;28;20662;-69
2023/08/12 08:02:41;;;;;;;0.73;0.73;;;;;;;25.86;75.76;100703.00;5053599;28;20199;-70
2023/08/12 08:05:09;;;;;;;0.60;0.60;;;;;;;26.13;74.70;100692.16;5061549;28;20214;-71
2023/08/12 08:07:35;;;;;;;0.60;0.60;;;;;;;26.18;73.26;100678.72;5059548;28;20234;-70
2023/08/12 08:10:02;;;;;;;0.60;0.60;;;;;;;26.13;71.88;100676.19;5073590;28;20207;-70
2023/08/12 08:12:29;;;;;;;0.60;0.60;;;;;;;26.20;73.64;100689.28;5073929;28;20203;-71
2023/08/12 08:14:56;;;;;;;1.98;0.98;;;;;;;26.08;70.69;100696.78;5062622;28;20214;-72
2023/08/12 08:17:23;;;;;;;0.80;0.80;;;;;;;26.31;69.52;100695.91;5051715;28;20207;-71
2023/08/12 08:19:51;;;;;;;1.65;0.82;;;;;;;26.46;69.49;100694.44;5064057;28;20234;-71
2023/08/12 08:22:18;;;;;;;0.73;0.70;;;;;;;26.57;69.87;100701.06;5066853;28;20203;-71
2023/08/12 08:24:44;;;;;;;2.58;1.10;;;;;;;26.60;69.62;100692.06;5053965;28;20200;-71
2023/08/12 08:27:13;;;;;;;0.88;0.82;;;;;;;26.68;69.46;100692.63;5067365;28;20227;-70
2023/08/12 08:29:39;;;;;;;0.60;0.60;;;;;;;26.75;69.33;100688.78;5066233;28;20238;-71
2023/08/12 08:32:07;;;;;;;2.60;1.02;;;;;;;26.69;69.75;100691.69;5054270;28;20206;-69
2023/08/12 08:34:34;;;;;;;1.17;0.90;;;;;;;26.37;69.53;100694.78;5064834;28;20207;-70
2023/08/12 08:37:02;;;;;;;0.70;0.70;;;;;;;26.38;71.03;100688.53;5055562;28;20204;-71
2023/08/12 08:39:29;;;;;;;0.68;0.68;;;;;;;26.51;71.00;100689.78;5064257;28;20214;-73
2023/08/12 08:41:57;;;;;;;0.90;0.90;;;;;;;26.56;67.01;100679.81;5071065;28;20398;-71
2023/08/12 08:44:24;;;;;;;0.80;0.80;;;;;;;26.74;68.05;100684.38;5067743;28;20210;-72
2023/08/12 08:46:53;;;;;;;2.85;0.98;;;;;;;27.20;71.22;100679.78;5061533;28;20259;-71
2023/08/12 08:49:21;;;;;;;0.80;0.80;;;;;;;27.31;67.31;100675.72;5067802;28;20214;-75
2023/08/12 08:51:49;;;;;;;1.23;0.80;;;;;;;27.23;66.83;100684.97;5064777;28;20218;-70
2023/08/12 08:54:17;;;;;;;2.05;0.90;;;;;;;26.92;66.54;100638.38;5042151;28;20203;-72
2023/08/12 08:56:44;;;;;;;0.90;0.90;;;;;;;27.39;65.24;100670.91;5072621;28;20210;-72
2023/08/12 08:59:11;;;;;;;1.75;0.95;;;;;;;27.34;65.18;100680.91;5064220;28;20200;-72
2023/08/12 09:01:38;;;;;;;0.70;0.70;;;;;;;27.36;68.19;100672.84;5063880;28;20214;-72
2023/08/12 09:04:06;;;;;;;0.95;0.75;;;;;;;27.53;67.66;100673.00;5070168;28;20199;-73
2023/08/12 09:06:36;;;;;;;0.55;0.55;;;;;;;27.60;64.48;100669.13;5071547;28;20615;-72
2023/08/12 09:09:05;;;;;;;0.70;0.70;;;;;;;27.03;66.32;100668.06;5053048;28;20683;-69
2023/08/12 09:11:34;;;;;;;0.85;0.85;;;;;;;27.22;68.49;100667.28;5068743;28;20195;-68
2023/08/12 09:14:01;;;;;;;0.60;0.60;;;;;;;27.16;69.26;100667.53;5051464;28;20207;-69
2023/08/12 09:16:28;;;;;;;1.33;0.85;;;;;;;27.18;69.62;100660.34;5056687;28;20202;-70
2023/08/12 09:18:56;;;;;;;0.80;0.80;;;;;;;27.27;69.30;100651.94;5072192;28;20280;-68
2023/08/12 09:21:23;;;;;;;0.70;0.70;;;;;;;27.12;65.69;100669.47;5057543;28;20214;-69
2023/08/12 09:23:50;;;;;;;1.85;1.00;;;;;;;27.15;67.52;100671.16;5049587;28;20568;-71
2023/08/12 09:26:19;;;;;;;0.70;0.70;;;;;;;27.27;65.35;100662.59;5056556;28;20244;-70
2023/08/12 09:28:47;;;;;;;0.80;0.80;;;;;;;27.28;67.16;100662.53;5059880;28;20203;-72
2023/08/12 09:31:24;;;;;;;2.10;0.95;;;;;;;27.51;65.78;100651.72;5071033;28;20207;-71
2023/08/12 09:33:51;;;;;;;0.80;0.80;;;;;;;27.42;64.48;100643.28;5054328;28;20286;-71
2023/08/12 09:36:18;;;;;;;1.52;0.88;;;;;;;27.42;67.54;100648.59;5031865;28;20223;-71
2023/08/12 09:38:45;;;;;;;0.70;0.70;;;;;;;27.48;64.23;100640.34;5050785;28;20192;-70
2023/08/12 09:41:12;;;;;;;1.25;1.15;;;;;;;27.33;62.99;100655.19;5016191;28;20200;-73
2023/08/12 09:43:42;;;;;;;0.70;0.70;;;;;;;27.41;65.93;100642.41;5050787;28;20203;-72
2023/08/12 09:46:12;;;;;;;2.55;1.00;;;;;;;27.40;65.01;100635.34;5050446;28;20262;-70
2023/08/12 09:48:39;;;;;;;1.70;0.82;;;;;;;27.54;63.61;100643.59;5050472;28;20334;-71
2023/08/12 09:51:06;;;;;;;0.60;0.60;;;;;;;27.64;63.25;100632.53;5050462;28;20705;-69
2023/08/12 09:53:33;;;;;;;0.95;0.82;;;;;;;27.62;63.01;100615.72;5050546;28;20690;-70
2023/08/12 09:56:06;;;;;;;1.15;0.88;;;;;;;27.85;63.21;100621.72;5050379;28;20597;-68
2023/08/12 09:58:35;;;;;;;0.98;0.90;;;;;;;27.75;64.51;100627.56;5050900;28;20206;-69
2023/08/12 10:01:03;;;;;;;0.60;0.60;;;;;;;27.85;64.91;100631.53;5049852;28;20200;-69
2023/08/12 10:03:33;;;;;;;1.55;0.80;;;;;;;27.61;62.21;100608.69;5050196;28;20309;-69
2023/08/12 10:06:01;;;;;;;2.00;1.08;;;;;;;27.83;63.25;100626.25;5063963;28;20700;-69
2023/08/12 10:08:28;;;;;;;1.17;0.77;;;;;;;27.92;63.19;100622.28;5057648;28;20650;-68
2023/08/12 10:10:55;;;;;;;1.23;1.13;;;;;;;27.65;61.59;100613.78;5030475;28;20199;-69
2023/08/12 10:13:23;;;;;;;1.45;0.90;;;;;;;27.72;63.89;100614.38;5065183;28;20194;-73
2023/08/12 10:15:50;;;;;;;0.70;0.70;;;;;;;27.69;61.89;100601.19;5056299;28;20286;-70
2023/08/12 10:18:19;;;;;;;2.08;0.98;;;;;;;27.74;62.22;100608.03;5056244;28;20206;-67
2023/08/12 10:20:48;;;;;;;1.23;0.85;;;;;;;27.88;63.19;100610.03;5045563;28;20206;-67
2023/08/12 10:23:18;;;;;;;1.10;0.82;;;;;;;27.89;60.70;100612.66;5041345;28;20222;-68
2023/08/12 10:25:45;;;;;;;0.85;0.77;;;;;;;27.95;62.71;100615.00;4989266;28;20204;-67
2023/08/12 10:28:12;;;;;;;1.90;0.85;;;;;;;28.04;60.33;100598.56;5037364;28;20201;-68
2023/08/12 10:30:41;;;;;;;1.65;0.88;;;;;;;28.00;62.51;100599.63;5011407;28;20224;-67
2023/08/12 10:33:08;;;;;;;1.05;0.80;;;;;;;28.12;59.78;100600.00;5044843;28;20207;-67
2023/08/12 10:35:43;;;;;;;0.70;0.70;;;;;;;28.32;59.55;100599.91;5040523;28;20223;-67
2023/08/12 10:38:12;;;;;;;2.30;0.95;;;;;;;28.27;59.03;100580.59;5030723;28;20576;-67
2023/08/12 10:40:39;;;;;;;0.70;0.70;;;;;;;28.23;60.48;100601.22;5043044;28;20290;-67
2023/08/12 10:43:06;;;;;;;1.80;1.27;;;;;;;28.12;58.81;100568.88;5053192;28;20203;-67
2023/08/12 10:45:44;;;;;;;0.63;0.63;;;;;;;28.35;61.39;100589.09;5026892;28;20203;-67
2023/08/12 10:48:17;;;;;;;0.70;0.70;;;;;;;28.49;61.15;100591.94;5004577;28;20231;-68
2023/08/12 10:50:45;;;;;;;1.05;0.80;;;;;;;28.45;59.14;100577.88;5043872;28;20654;-67
2023/08/12 10:53:29;;;;;;;0.60;0.60;;;;;;;28.64;58.71;100585.81;5045683;28;20232;-67
2023/08/12 10:55:57;;;;;;;0.85;0.80;;;;;;;28.58;58.16;100580.75;5040354;28;20207;-67
2023/08/12 10:58:28;;;;;;;1.27;0.70;;;;;;;28.56;58.36;100580.00;5034514;28;20671;-67
2023/08/12 11:00:56;;;;;;;0.73;0.73;;;;;;;28.67;59.18;100575.00;5038388;28;20196;-68
2023/08/12 11:03:23;;;;;;;0.70;0.70;;;;;;;28.77;56.86;100576.25;5036317;28;20223;-67
2023/08/12 11:05:50;;;;;;;0.70;0.60;;;;;;;28.89;58.23;100569.41;5057593;28;20684;-68
2023/08/12 11:08:17;;;;;;;4.70;1.33;;;;;;;28.77;54.26;100570.91;5059698;28;20291;-67
2023/08/12 11:10:45;;;;;;;0.70;0.70;;;;;;;28.83;55.04;100572.38;5050582;28;20207;-67
2023/08/12 11:13:14;;;;;;;0.80;0.80;;;;;;;28.77;55.45;100567.38;5050490;28;20210;-67
2023/08/12 11:15:45;;;;;;;1.52;0.85;;;;;;;28.87;53.69;100572.16;5050212;28;20222;-68
2023/08/12 11:18:16;;;;;;;3.25;1.20;;;;;;;28.74;55.19;100568.41;5050285;28;20202;-68
2023/08/12 11:20:43;;;;;;;0.70;0.70;;;;;;;28.84;54.62;100566.09;5045672;28;20203;-68
2023/08/12 11:23:11;;;;;;;1.10;0.88;;;;;;;28.78;53.69;100545.94;5045072;28;20212;-69
2023/08/12 11:25:39;;;;;;;0.63;0.60;;;;;;;28.95;54.73;100547.72;5054088;28;20200;-69